sensor_id;sensor_type;location;lat;lon;timestamp;temperature;humidity
18305;DHT22;9278;52.156;21.048;2023-04-08T00:00:11;6.70;99.90
18305;DHT22;9278;52.156;21.048;2023-04-08T00:02:41;6.70;99.90
18305;DHT22;9278;52.156;21.048;2023-04-08T00:05:09;6.80;99.90
18305;DHT22;9278;52.156;21.048;2023-04-08T00:07:37;6.70;99.90
18305;DHT22;9278;52.156;21.048;2023-04-08T00:10:06;6.80;99.90
18305;DHT22;9278;52.156;21.048;2023-04-08T00:12:35;6.70;99.90
18305;DHT22;9278;52.156;21.048;2023-04-08T00:15:05;6.80;99.90
18305;DHT22;9278;52.156;21.048;2023-04-08T00:17:34;6.60;99.90
18305;DHT22;9278;52.156;21.048;2023-04-08T00:20:04;6.70;99.90
18305;DHT22;9278;52.156;21.048;2023-04-08T00:22:32;6.70;99.90
18305;DHT22;9278;52.156;21.048;2023-04-08T00:25:01;6.60;99.90
18305;DHT22;9278;52.156;21.048;2023-04-08T00:27:32;6.70;99.90
18305;DHT22;9278;52.156;21.048;2023-04-08T00:30:00;6.70;99.90
18305;DHT22;9278;52.156;21.048;2023-04-08T00:32:29;6.80;99.90
18305;DHT22;9278;52.156;21.048;2023-04-08T00:34:57;6.90;99.90
18305;DHT22;9278;52.156;21.048;2023-04-08T00:37:28;6.60;99.90
18305;DHT22;9278;52.156;21.048;2023-04-08T00:39:57;6.60;99.90
18305;DHT22;9278;52.156;21.048;2023-04-08T00:42:25;6.60;99.90
18305;DHT22;9278;52.156;21.048;2023-04-08T00:44:53;6.40;99.90
18305;DHT22;9278;52.156;21.048;2023-04-08T00:47:23;6.60;99.90
18305;DHT22;9278;52.156;21.048;2023-04-08T00:49:52;6.60;99.90
18305;DHT22;9278;52.156;21.048;2023-04-08T00:52:20;6.60;99.90
18305;DHT22;9278;52.156;21.048;2023-04-08T00:54:50;6.50;99.90
18305;DHT22;9278;52.156;21.048;2023-04-08T00:57:18;6.60;99.90
18305;DHT22;9278;52.156;21.048;2023-04-08T00:59:46;6.60;99.90
18305;DHT22;9278;52.156;21.048;2023-04-08T01:02:20;6.60;99.90
18305;DHT22;9278;52.156;21.048;2023-04-08T01:04:56;6.50;99.90
18305;DHT22;9278;52.156;21.048;2023-04-08T01:07:28;6.50;99.90
18305;DHT22;9278;52.156;21.048;2023-04-08T01:10:02;6.50;99.90
18305;DHT22;9278;52.156;21.048;2023-04-08T01:12:32;6.60;99.90
18305;DHT22;9278;52.156;21.048;2023-04-08T01:15:06;6.50;99.90
18305;DHT22;9278;52.156;21.048;2023-04-08T01:17:36;6.40;99.90
18305;DHT22;9278;52.156;21.048;2023-04-08T01:20:06;6.40;99.90
18305;DHT22;9278;52.156;21.048;2023-04-08T01:22:43;6.10;99.90
18305;DHT22;9278;52.156;21.048;2023-04-08T01:25:18;5.80;99.90
18305;DHT22;9278;52.156;21.048;2023-04-08T01:27:49;5.50;99.90
18305;DHT22;9278;52.156;21.048;2023-04-08T01:30:24;5.40;99.90
18305;DHT22;9278;52.156;21.048;2023-04-08T01:32:53;5.20;99.90
18305;DHT22;9278;52.156;21.048;2023-04-08T01:35:23;5.00;99.90
18305;DHT22;9278;52.156;21.048;2023-04-08T01:37:52;5.10;99.90
18305;DHT22;9278;52.156;21.048;2023-04-08T01:40:21;4.80;99.90
18305;DHT22;9278;52.156;21.048;2023-04-08T01:42:53;4.70;99.90
18305;DHT22;9278;52.156;21.048;2023-04-08T01:45:22;4.60;99.90
18305;DHT22;9278;52.156;21.048;2023-04-08T01:47:52;4.60;99.90
18305;DHT22;9278;52.156;21.048;2023-04-08T01:50:21;4.30;99.90
18305;DHT22;9278;52.156;21.048;2023-04-08T01:52:50;4.30;99.90
18305;DHT22;9278;52.156;21.048;2023-04-08T01:55:20;4.20;99.90
18305;DHT22;9278;52.156;21.048;2023-04-08T01:57:51;4.10;99.90
18305;DHT22;9278;52.156;21.048;2023-04-08T02:00:23;4.10;99.90
18305;DHT22;9278;52.156;21.048;2023-04-08T02:02:53;4.30;99.90
18305;DHT22;9278;52.156;21.048;2023-04-08T02:05:22;4.30;99.90
18305;DHT22;9278;52.156;21.048;2023-04-08T02:07:51;4.30;99.90
18305;DHT22;9278;52.156;21.048;2023-04-08T02:10:19;4.20;99.90
18305;DHT22;9278;52.156;21.048;2023-04-08T02:12:47;4.00;99.90
18305;DHT22;9278;52.156;21.048;2023-04-08T02:15:17;3.90;99.90
18305;DHT22;9278;52.156;21.048;2023-04-08T02:17:49;4.00;99.90
18305;DHT22;9278;52.156;21.048;2023-04-08T02:20:22;4.00;99.90
18305;DHT22;9278;52.156;21.048;2023-04-08T02:22:56;3.80;99.90
18305;DHT22;9278;52.156;21.048;2023-04-08T02:25:28;3.70;99.90
18305;DHT22;9278;52.156;21.048;2023-04-08T02:27:57;3.60;99.90
18305;DHT22;9278;52.156;21.048;2023-04-08T02:30:29;3.70;99.90
18305;DHT22;9278;52.156;21.048;2023-04-08T02:33:00;3.50;99.90
18305;DHT22;9278;52.156;21.048;2023-04-08T02:35:30;3.50;99.90
18305;DHT22;9278;52.156;21.048;2023-04-08T02:37:59;3.40;99.90
18305;DHT22;9278;52.156;21.048;2023-04-08T02:40:30;3.30;99.90
18305;DHT22;9278;52.156;21.048;2023-04-08T02:42:59;3.30;99.90
18305;DHT22;9278;52.156;21.048;2023-04-08T02:45:30;4.70;99.90
18305;DHT22;9278;52.156;21.048;2023-04-08T02:47:59;3.40;99.90
18305;DHT22;9278;52.156;21.048;2023-04-08T02:50:30;3.40;99.90
18305;DHT22;9278;52.156;21.048;2023-04-08T02:52:58;3.20;99.90
18305;DHT22;9278;52.156;21.048;2023-04-08T02:55:27;3.20;99.90
18305;DHT22;9278;52.156;21.048;2023-04-08T02:57:55;3.20;99.90
18305;DHT22;9278;52.156;21.048;2023-04-08T03:00:23;3.20;99.90
18305;DHT22;9278;52.156;21.048;2023-04-08T03:02:53;3.30;99.90
18305;DHT22;9278;52.156;21.048;2023-04-08T03:05:23;3.20;99.90
18305;DHT22;9278;52.156;21.048;2023-04-08T03:07:51;3.30;99.90
18305;DHT22;9278;52.156;21.048;2023-04-08T03:10:19;3.20;99.90
18305;DHT22;9278;52.156;21.048;2023-04-08T03:12:47;3.10;99.90
18305;DHT22;9278;52.156;21.048;2023-04-08T03:15:15;3.20;99.90
18305;DHT22;9278;52.156;21.048;2023-04-08T03:17:44;3.20;99.90
18305;DHT22;9278;52.156;21.048;2023-04-08T03:20:16;3.00;99.90
18305;DHT22;9278;52.156;21.048;2023-04-08T03:22:44;3.00;99.90
18305;DHT22;9278;52.156;21.048;2023-04-08T03:25:13;3.10;99.90
18305;DHT22;9278;52.156;21.048;2023-04-08T03:27:41;3.20;99.90
18305;DHT22;9278;52.156;21.048;2023-04-08T03:30:09;3.20;99.90
18305;DHT22;9278;52.156;21.048;2023-04-08T03:32:38;3.20;99.90
18305;DHT22;9278;52.156;21.048;2023-04-08T03:35:07;3.30;99.90
18305;DHT22;9278;52.156;21.048;2023-04-08T03:37:36;2.90;99.90
18305;DHT22;9278;52.156;21.048;2023-04-08T03:40:06;2.90;99.90
18305;DHT22;9278;52.156;21.048;2023-04-08T03:42:34;3.00;99.90
18305;DHT22;9278;52.156;21.048;2023-04-08T03:45:03;4.30;99.90
18305;DHT22;9278;52.156;21.048;2023-04-08T03:47:31;2.80;99.90
18305;DHT22;9278;52.156;21.048;2023-04-08T03:49:59;2.70;99.90
18305;DHT22;9278;52.156;21.048;2023-04-08T03:52:27;2.70;99.90
18305;DHT22;9278;52.156;21.048;2023-04-08T03:54:57;2.60;99.90
18305;DHT22;9278;52.156;21.048;2023-04-08T03:57:25;2.50;99.90
18305;DHT22;9278;52.156;21.048;2023-04-08T03:59:53;2.50;1.00
18305;DHT22;9278;52.156;21.048;2023-04-08T04:02:21;2.70;99.90
18305;DHT22;9278;52.156;21.048;2023-04-08T04:04:51;2.40;99.90
18305;DHT22;9278;52.156;21.048;2023-04-08T04:07:20;2.50;99.90
18305;DHT22;9278;52.156;21.048;2023-04-08T04:09:48;2.60;99.90
18305;DHT22;9278;52.156;21.048;2023-04-08T04:12:21;2.70;99.90
18305;DHT22;9278;52.156;21.048;2023-04-08T04:14:49;2.80;99.90
18305;DHT22;9278;52.156;21.048;2023-04-08T04:17:17;3.00;99.90
18305;DHT22;9278;52.156;21.048;2023-04-08T04:19:45;2.90;99.90
18305;DHT22;9278;52.156;21.048;2023-04-08T04:22:13;3.10;99.90
18305;DHT22;9278;52.156;21.048;2023-04-08T04:24:46;2.80;99.90
18305;DHT22;9278;52.156;21.048;2023-04-08T04:27:14;2.70;99.90
18305;DHT22;9278;52.156;21.048;2023-04-08T04:29:44;2.70;99.90
18305;DHT22;9278;52.156;21.048;2023-04-08T04:32:13;2.80;99.90
18305;DHT22;9278;52.156;21.048;2023-04-08T04:34:41;2.70;99.90
18305;DHT22;9278;52.156;21.048;2023-04-08T04:37:10;2.70;99.90
18305;DHT22;9278;52.156;21.048;2023-04-08T04:39:39;2.80;99.90
18305;DHT22;9278;52.156;21.048;2023-04-08T04:42:07;2.90;99.90
18305;DHT22;9278;52.156;21.048;2023-04-08T04:44:36;3.00;99.90
18305;DHT22;9278;52.156;21.048;2023-04-08T04:47:05;3.10;99.90
18305;DHT22;9278;52.156;21.048;2023-04-08T04:49:33;3.20;99.90
18305;DHT22;9278;52.156;21.048;2023-04-08T04:52:01;3.30;99.90
18305;DHT22;9278;52.156;21.048;2023-04-08T04:54:30;3.30;99.90
18305;DHT22;9278;52.156;21.048;2023-04-08T04:56:58;3.30;99.90
18305;DHT22;9278;52.156;21.048;2023-04-08T04:59:26;3.30;99.90
18305;DHT22;9278;52.156;21.048;2023-04-08T05:01:55;3.40;99.90
18305;DHT22;9278;52.156;21.048;2023-04-08T05:04:25;3.40;99.90
18305;DHT22;9278;52.156;21.048;2023-04-08T05:06:53;3.60;99.90
18305;DHT22;9278;52.156;21.048;2023-04-08T05:09:21;3.60;99.90
18305;DHT22;9278;52.156;21.048;2023-04-08T05:11:50;3.80;99.90
18305;DHT22;9278;52.156;21.048;2023-04-08T05:14:18;3.70;99.90
18305;DHT22;9278;52.156;21.048;2023-04-08T05:16:46;3.80;99.90
18305;DHT22;9278;52.156;21.048;2023-04-08T05:19:14;3.90;99.90
18305;DHT22;9278;52.156;21.048;2023-04-08T05:21:44;3.90;99.90
18305;DHT22;9278;52.156;21.048;2023-04-08T05:24:12;4.00;99.90
18305;DHT22;9278;52.156;21.048;2023-04-08T05:26:40;4.00;99.90
18305;DHT22;9278;52.156;21.048;2023-04-08T05:29:08;4.10;99.90
18305;DHT22;9278;52.156;21.048;2023-04-08T05:31:37;4.20;99.90
18305;DHT22;9278;52.156;21.048;2023-04-08T05:34:05;4.20;99.90
18305;DHT22;9278;52.156;21.048;2023-04-08T05:36:33;4.40;99.90
18305;DHT22;9278;52.156;21.048;2023-04-08T05:39:03;4.60;99.90
18305;DHT22;9278;52.156;21.048;2023-04-08T05:41:31;4.50;99.90
18305;DHT22;9278;52.156;21.048;2023-04-08T05:44:00;4.70;99.90
18305;DHT22;9278;52.156;21.048;2023-04-08T05:46:28;4.70;99.90
18305;DHT22;9278;52.156;21.048;2023-04-08T05:48:56;4.80;99.90
18305;DHT22;9278;52.156;21.048;2023-04-08T05:51:24;4.90;99.90
18305;DHT22;9278;52.156;21.048;2023-04-08T05:53:52;4.90;99.90
18305;DHT22;9278;52.156;21.048;2023-04-08T05:56:22;4.90;99.90
18305;DHT22;9278;52.156;21.048;2023-04-08T05:58:50;5.10;99.90
18305;DHT22;9278;52.156;21.048;2023-04-08T06:01:18;5.20;99.90
18305;DHT22;9278;52.156;21.048;2023-04-08T06:03:47;5.30;99.90
18305;DHT22;9278;52.156;21.048;2023-04-08T06:08:44;5.40;99.90
18305;DHT22;9278;52.156;21.048;2023-04-08T06:11:13;5.60;99.90
18305;DHT22;9278;52.156;21.048;2023-04-08T06:13:43;5.60;99.90
18305;DHT22;9278;52.156;21.048;2023-04-08T06:16:12;5.80;99.90
18305;DHT22;9278;52.156;21.048;2023-04-08T06:18:40;5.90;99.90
18305;DHT22;9278;52.156;21.048;2023-04-08T06:21:09;6.00;99.90
18305;DHT22;9278;52.156;21.048;2023-04-08T06:23:37;6.10;99.90
18305;DHT22;9278;52.156;21.048;2023-04-08T06:26:05;6.20;99.90
18305;DHT22;9278;52.156;21.048;2023-04-08T06:28:33;6.10;99.90
18305;DHT22;9278;52.156;21.048;2023-04-08T06:31:04;6.20;99.90
18305;DHT22;9278;52.156;21.048;2023-04-08T06:33:32;6.30;99.90
18305;DHT22;9278;52.156;21.048;2023-04-08T06:36:01;6.50;99.90
18305;DHT22;9278;52.156;21.048;2023-04-08T06:38:30;6.60;99.90
18305;DHT22;9278;52.156;21.048;2023-04-08T06:41:01;6.60;99.90
18305;DHT22;9278;52.156;21.048;2023-04-08T06:43:30;6.80;99.90
18305;DHT22;9278;52.156;21.048;2023-04-08T06:45:59;6.90;99.90
18305;DHT22;9278;52.156;21.048;2023-04-08T06:48:28;7.00;99.90
18305;DHT22;9278;52.156;21.048;2023-04-08T06:50:57;7.00;99.90
18305;DHT22;9278;52.156;21.048;2023-04-08T06:53:26;7.20;99.90
18305;DHT22;9278;52.156;21.048;2023-04-08T06:55:57;7.30;99.90
18305;DHT22;9278;52.156;21.048;2023-04-08T07:00:53;7.30;99.90
18305;DHT22;9278;52.156;21.048;2023-04-08T07:03:22;7.40;99.90
18305;DHT22;9278;52.156;21.048;2023-04-08T07:05:52;7.60;99.90
18305;DHT22;9278;52.156;21.048;2023-04-08T07:08:20;7.60;99.90
18305;DHT22;9278;52.156;21.048;2023-04-08T07:10:50;7.60;99.90
18305;DHT22;9278;52.156;21.048;2023-04-08T07:13:18;7.80;99.90
18305;DHT22;9278;52.156;21.048;2023-04-08T07:15:46;7.70;99.90
18305;DHT22;9278;52.156;21.048;2023-04-08T07:18:15;7.80;99.90
18305;DHT22;9278;52.156;21.048;2023-04-08T07:20:43;7.90;99.90
18305;DHT22;9278;52.156;21.048;2023-04-08T07:23:13;7.90;99.90
18305;DHT22;9278;52.156;21.048;2023-04-08T07:25:41;7.90;99.90
18305;DHT22;9278;52.156;21.048;2023-04-08T07:28:10;8.10;99.90
18305;DHT22;9278;52.156;21.048;2023-04-08T07:30:38;8.10;99.90
18305;DHT22;9278;52.156;21.048;2023-04-08T07:33:06;8.10;99.90
18305;DHT22;9278;52.156;21.048;2023-04-08T07:35:34;8.30;99.90
18305;DHT22;9278;52.156;21.048;2023-04-08T07:38:03;8.30;99.90
18305;DHT22;9278;52.156;21.048;2023-04-08T07:40:36;8.30;99.90
18305;DHT22;9278;52.156;21.048;2023-04-08T07:43:04;8.60;99.90
18305;DHT22;9278;52.156;21.048;2023-04-08T07:45:32;8.50;99.90
18305;DHT22;9278;52.156;21.048;2023-04-08T07:48:01;8.50;99.90
18305;DHT22;9278;52.156;21.048;2023-04-08T07:52:57;8.70;99.90
18305;DHT22;9278;52.156;21.048;2023-04-08T07:55:25;8.90;99.90
18305;DHT22;9278;52.156;21.048;2023-04-08T07:57:55;8.90;99.90
18305;DHT22;9278;52.156;21.048;2023-04-08T08:00:23;8.80;99.90
18305;DHT22;9278;52.156;21.048;2023-04-08T08:02:52;9.00;99.90
18305;DHT22;9278;52.156;21.048;2023-04-08T08:05:20;9.00;99.90
18305;DHT22;9278;52.156;21.048;2023-04-08T08:07:48;9.20;99.90
18305;DHT22;9278;52.156;21.048;2023-04-08T08:10:17;9.20;99.90
18305;DHT22;9278;52.156;21.048;2023-04-08T08:12:45;9.20;99.90
18305;DHT22;9278;52.156;21.048;2023-04-08T08:15:15;9.30;99.90
18305;DHT22;9278;52.156;21.048;2023-04-08T08:17:43;9.50;99.90
18305;DHT22;9278;52.156;21.048;2023-04-08T08:20:11;9.60;99.90
18305;DHT22;9278;52.156;21.048;2023-04-08T08:22:39;9.50;99.90
18305;DHT22;9278;52.156;21.048;2023-04-08T08:25:22;9.40;99.90
18305;DHT22;9278;52.156;21.048;2023-04-08T08:27:52;9.40;99.90
18305;DHT22;9278;52.156;21.048;2023-04-08T08:30:22;9.30;99.90
18305;DHT22;9278;52.156;21.048;2023-04-08T08:32:52;9.40;99.90
18305;DHT22;9278;52.156;21.048;2023-04-08T08:35:20;9.60;99.90
18305;DHT22;9278;52.156;21.048;2023-04-08T08:37:48;9.80;99.90
18305;DHT22;9278;52.156;21.048;2023-04-08T08:40:17;9.70;99.90
18305;DHT22;9278;52.156;21.048;2023-04-08T08:42:49;9.70;99.90
18305;DHT22;9278;52.156;21.048;2023-04-08T08:45:18;9.90;99.90
18305;DHT22;9278;52.156;21.048;2023-04-08T08:47:48;9.80;99.90
18305;DHT22;9278;52.156;21.048;2023-04-08T08:50:17;9.80;99.90
18305;DHT22;9278;52.156;21.048;2023-04-08T08:52:49;9.90;99.90
18305;DHT22;9278;52.156;21.048;2023-04-08T08:55:18;10.10;99.90
18305;DHT22;9278;52.156;21.048;2023-04-08T08:58:07;10.50;99.90
18305;DHT22;9278;52.156;21.048;2023-04-08T09:00:36;10.60;99.90
18305;DHT22;9278;52.156;21.048;2023-04-08T09:03:20;10.60;99.90
18305;DHT22;9278;52.156;21.048;2023-04-08T09:05:50;10.60;99.90
18305;DHT22;9278;52.156;21.048;2023-04-08T09:08:29;10.70;99.90
18305;DHT22;9278;52.156;21.048;2023-04-08T09:11:11;11.10;99.90
18305;DHT22;9278;52.156;21.048;2023-04-08T09:13:39;10.90;99.90
18305;DHT22;9278;52.156;21.048;2023-04-08T09:16:09;11.10;99.90
18305;DHT22;9278;52.156;21.048;2023-04-08T09:18:40;11.10;99.90
18305;DHT22;9278;52.156;21.048;2023-04-08T09:21:11;11.50;99.90
18305;DHT22;9278;52.156;21.048;2023-04-08T09:23:42;11.20;99.90
18305;DHT22;9278;52.156;21.048;2023-04-08T09:26:11;11.20;99.90
18305;DHT22;9278;52.156;21.048;2023-04-08T09:28:41;11.10;99.90
18305;DHT22;9278;52.156;21.048;2023-04-08T09:31:20;11.10;99.90
18305;DHT22;9278;52.156;21.048;2023-04-08T09:33:52;11.20;99.90
18305;DHT22;9278;52.156;21.048;2023-04-08T09:36:21;11.00;99.90
18305;DHT22;9278;52.156;21.048;2023-04-08T09:38:49;11.20;99.90
18305;DHT22;9278;52.156;21.048;2023-04-08T09:41:18;11.50;99.90
18305;DHT22;9278;52.156;21.048;2023-04-08T09:43:51;11.50;99.90
18305;DHT22;9278;52.156;21.048;2023-04-08T09:46:25;11.50;99.90
18305;DHT22;9278;52.156;21.048;2023-04-08T09:49:04;11.60;99.90
18305;DHT22;9278;52.156;21.048;2023-04-08T09:51:40;11.70;99.90
18305;DHT22;9278;52.156;21.048;2023-04-08T09:54:14;11.90;99.90
18305;DHT22;9278;52.156;21.048;2023-04-08T09:56:50;11.90;99.90
18305;DHT22;9278;52.156;21.048;2023-04-08T09:59:24;11.60;99.90
18305;DHT22;9278;52.156;21.048;2023-04-08T10:01:57;12.10;99.90
18305;DHT22;9278;52.156;21.048;2023-04-08T10:04:29;11.80;99.90
18305;DHT22;9278;52.156;21.048;2023-04-08T10:07:03;11.70;99.90
18305;DHT22;9278;52.156;21.048;2023-04-08T10:09:33;11.70;99.90
18305;DHT22;9278;52.156;21.048;2023-04-08T10:12:04;11.90;99.90
18305;DHT22;9278;52.156;21.048;2023-04-08T10:14:32;12.20;99.90
18305;DHT22;9278;52.156;21.048;2023-04-08T10:17:24;12.20;99.90
18305;DHT22;9278;52.156;21.048;2023-04-08T10:19:56;12.00;99.90
18305;DHT22;9278;52.156;21.048;2023-04-08T10:22:46;12.60;99.90
18305;DHT22;9278;52.156;21.048;2023-04-08T10:25:31;12.60;99.90
18305;DHT22;9278;52.156;21.048;2023-04-08T10:28:00;12.60;99.90
18305;DHT22;9278;52.156;21.048;2023-04-08T10:30:40;12.50;99.90
18305;DHT22;9278;52.156;21.048;2023-04-08T10:33:12;12.20;99.90
18305;DHT22;9278;52.156;21.048;2023-04-08T10:35:46;12.40;99.90
18305;DHT22;9278;52.156;21.048;2023-04-08T10:38:16;12.00;99.90
18305;DHT22;9278;52.156;21.048;2023-04-08T10:40:46;12.90;99.90
18305;DHT22;9278;52.156;21.048;2023-04-08T10:43:14;12.90;99.90
18305;DHT22;9278;52.156;21.048;2023-04-08T10:45:43;12.90;99.90
18305;DHT22;9278;52.156;21.048;2023-04-08T10:48:16;13.00;99.90
18305;DHT22;9278;52.156;21.048;2023-04-08T10:50:53;13.30;99.90
18305;DHT22;9278;52.156;21.048;2023-04-08T10:53:26;13.30;99.90
18305;DHT22;9278;52.156;21.048;2023-04-08T10:56:02;13.30;99.90
18305;DHT22;9278;52.156;21.048;2023-04-08T10:58:32;13.40;99.90
18305;DHT22;9278;52.156;21.048;2023-04-08T11:01:04;13.00;99.90
18305;DHT22;9278;52.156;21.048;2023-04-08T11:03:34;13.30;99.90
18305;DHT22;9278;52.156;21.048;2023-04-08T11:06:05;13.20;99.90
18305;DHT22;9278;52.156;21.048;2023-04-08T11:08:35;13.00;99.90
18305;DHT22;9278;52.156;21.048;2023-04-08T11:11:04;13.00;99.90
18305;DHT22;9278;52.156;21.048;2023-04-08T11:13:35;13.10;99.90
18305;DHT22;9278;52.156;21.048;2023-04-08T11:16:05;13.60;99.90
18305;DHT22;9278;52.156;21.048;2023-04-08T11:18:44;13.60;99.90
18305;DHT22;9278;52.156;21.048;2023-04-08T11:21:15;14.60;99.90
18305;DHT22;9278;52.156;21.048;2023-04-08T11:23:44;13.20;99.90
18305;DHT22;9278;52.156;21.048;2023-04-08T11:26:14;13.40;99.90
18305;DHT22;9278;52.156;21.048;2023-04-08T11:28:43;14.10;99.90
18305;DHT22;9278;52.156;21.048;2023-04-08T11:31:11;14.20;99.90
18305;DHT22;9278;52.156;21.048;2023-04-08T11:33:45;14.80;99.90
18305;DHT22;9278;52.156;21.048;2023-04-08T11:36:17;14.90;99.90
18305;DHT22;9278;52.156;21.048;2023-04-08T11:38:46;14.40;99.90
18305;DHT22;9278;52.156;21.048;2023-04-08T11:41:15;13.80;99.90
18305;DHT22;9278;52.156;21.048;2023-04-08T11:43:54;13.90;99.90
18305;DHT22;9278;52.156;21.048;2023-04-08T11:46:23;13.50;99.90
18305;DHT22;9278;52.156;21.048;2023-04-08T11:48:59;13.80;99.90
18305;DHT22;9278;52.156;21.048;2023-04-08T11:51:29;14.40;99.90
18305;DHT22;9278;52.156;21.048;2023-04-08T11:53:57;14.60;99.90
18305;DHT22;9278;52.156;21.048;2023-04-08T11:56:26;14.40;99.90
18305;DHT22;9278;52.156;21.048;2023-04-08T11:58:56;14.10;99.90
18305;DHT22;9278;52.156;21.048;2023-04-08T12:01:25;14.40;99.90
18305;DHT22;9278;52.156;21.048;2023-04-08T12:03:57;14.70;99.90
18305;DHT22;9278;52.156;21.048;2023-04-08T12:06:29;14.80;99.90
18305;DHT22;9278;52.156;21.048;2023-04-08T12:08:57;15.00;99.90
18305;DHT22;9278;52.156;21.048;2023-04-08T12:11:25;14.70;99.90
18305;DHT22;9278;52.156;21.048;2023-04-08T12:13:54;15.00;99.90
18305;DHT22;9278;52.156;21.048;2023-04-08T12:16:23;15.00;99.90
18305;DHT22;9278;52.156;21.048;2023-04-08T12:18:51;14.90;99.90
18305;DHT22;9278;52.156;21.048;2023-04-08T12:21:19;14.70;99.90
18305;DHT22;9278;52.156;21.048;2023-04-08T12:23:49;14.70;99.90
18305;DHT22;9278;52.156;21.048;2023-04-08T12:26:18;14.60;99.90
18305;DHT22;9278;52.156;21.048;2023-04-08T12:28:46;14.70;99.90
18305;DHT22;9278;52.156;21.048;2023-04-08T12:31:15;14.80;99.90
18305;DHT22;9278;52.156;21.048;2023-04-08T12:33:43;14.60;99.90
18305;DHT22;9278;52.156;21.048;2023-04-08T12:36:11;15.10;99.90
18305;DHT22;9278;52.156;21.048;2023-04-08T12:38:40;15.10;99.90
18305;DHT22;9278;52.156;21.048;2023-04-08T12:41:09;15.20;99.90
18305;DHT22;9278;52.156;21.048;2023-04-08T12:43:38;15.20;99.90
18305;DHT22;9278;52.156;21.048;2023-04-08T12:46:06;15.60;99.90
18305;DHT22;9278;52.156;21.048;2023-04-08T12:48:34;15.90;99.90
18305;DHT22;9278;52.156;21.048;2023-04-08T12:51:03;16.10;99.90
18305;DHT22;9278;52.156;21.048;2023-04-08T12:53:32;15.90;99.90
18305;DHT22;9278;52.156;21.048;2023-04-08T12:56:00;16.20;99.90
18305;DHT22;9278;52.156;21.048;2023-04-08T12:58:30;16.20;99.90
18305;DHT22;9278;52.156;21.048;2023-04-08T13:00:58;16.20;99.90
18305;DHT22;9278;52.156;21.048;2023-04-08T13:03:27;16.10;99.90
18305;DHT22;9278;52.156;21.048;2023-04-08T13:05:57;16.40;99.90
18305;DHT22;9278;52.156;21.048;2023-04-08T13:08:26;16.60;99.90
18305;DHT22;9278;52.156;21.048;2023-04-08T13:10:54;15.90;99.90
18305;DHT22;9278;52.156;21.048;2023-04-08T13:13:22;16.50;99.90
18305;DHT22;9278;52.156;21.048;2023-04-08T13:15:52;15.80;99.90
18305;DHT22;9278;52.156;21.048;2023-04-08T13:18:20;15.30;99.90
18305;DHT22;9278;52.156;21.048;2023-04-08T13:20:48;15.10;99.90
18305;DHT22;9278;52.156;21.048;2023-04-08T13:23:17;15.70;99.90
18305;DHT22;9278;52.156;21.048;2023-04-08T13:25:45;15.90;99.90
18305;DHT22;9278;52.156;21.048;2023-04-08T13:28:14;15.90;99.90
18305;DHT22;9278;52.156;21.048;2023-04-08T13:30:42;15.70;99.90
18305;DHT22;9278;52.156;21.048;2023-04-08T13:33:12;15.70;99.90
18305;DHT22;9278;52.156;21.048;2023-04-08T13:35:40;15.70;99.90
18305;DHT22;9278;52.156;21.048;2023-04-08T13:38:08;15.90;99.90
18305;DHT22;9278;52.156;21.048;2023-04-08T13:40:37;16.20;99.90
18305;DHT22;9278;52.156;21.048;2023-04-08T13:43:05;16.70;99.90
18305;DHT22;9278;52.156;21.048;2023-04-08T13:45:34;17.00;99.90
18305;DHT22;9278;52.156;21.048;2023-04-08T13:48:02;17.00;99.90
18305;DHT22;9278;52.156;21.048;2023-04-08T13:50:32;16.90;99.90
18305;DHT22;9278;52.156;21.048;2023-04-08T13:53:00;16.60;99.90
18305;DHT22;9278;52.156;21.048;2023-04-08T13:55:29;16.50;99.90
18305;DHT22;9278;52.156;21.048;2023-04-08T13:57:57;15.60;99.90
18305;DHT22;9278;52.156;21.048;2023-04-08T14:00:25;15.80;99.90
18305;DHT22;9278;52.156;21.048;2023-04-08T14:02:53;16.20;99.90
18305;DHT22;9278;52.156;21.048;2023-04-08T14:05:22;16.30;99.90
18305;DHT22;9278;52.156;21.048;2023-04-08T14:07:51;16.00;99.90
18305;DHT22;9278;52.156;21.048;2023-04-08T14:10:20;16.00;99.90
18305;DHT22;9278;52.156;21.048;2023-04-08T14:12:48;16.00;99.90
18305;DHT22;9278;52.156;21.048;2023-04-08T14:15:17;15.90;99.90
18305;DHT22;9278;52.156;21.048;2023-04-08T14:17:45;16.00;99.90
18305;DHT22;9278;52.156;21.048;2023-04-08T14:20:14;15.50;99.90
18305;DHT22;9278;52.156;21.048;2023-04-08T14:22:42;15.40;99.90
18305;DHT22;9278;52.156;21.048;2023-04-08T14:25:12;15.30;99.90
18305;DHT22;9278;52.156;21.048;2023-04-08T14:27:40;15.60;99.90
18305;DHT22;9278;52.156;21.048;2023-04-08T14:30:24;15.40;99.90
18305;DHT22;9278;52.156;21.048;2023-04-08T14:32:53;15.30;99.90
18305;DHT22;9278;52.156;21.048;2023-04-08T14:35:21;15.20;99.90
18305;DHT22;9278;52.156;21.048;2023-04-08T14:37:49;15.30;99.90
18305;DHT22;9278;52.156;21.048;2023-04-08T14:40:19;15.40;99.90
18305;DHT22;9278;52.156;21.048;2023-04-08T14:42:47;15.10;99.90
18305;DHT22;9278;52.156;21.048;2023-04-08T14:45:16;15.30;1.00
18305;DHT22;9278;52.156;21.048;2023-04-08T14:47:44;14.90;1.00
18305;DHT22;9278;52.156;21.048;2023-04-08T14:50:13;14.90;1.00
18305;DHT22;9278;52.156;21.048;2023-04-08T14:52:41;14.90;1.00
18305;DHT22;9278;52.156;21.048;2023-04-08T14:55:11;15.00;99.90
18305;DHT22;9278;52.156;21.048;2023-04-08T14:57:41;15.20;1.00
18305;DHT22;9278;52.156;21.048;2023-04-08T15:00:10;14.90;1.00
18305;DHT22;9278;52.156;21.048;2023-04-08T15:02:38;14.60;1.00
18305;DHT22;9278;52.156;21.048;2023-04-08T15:05:07;14.70;1.00
18305;DHT22;9278;52.156;21.048;2023-04-08T15:07:35;14.50;1.00
18305;DHT22;9278;52.156;21.048;2023-04-08T15:10:04;14.30;1.00
18305;DHT22;9278;52.156;21.048;2023-04-08T15:12:33;14.60;1.00
18305;DHT22;9278;52.156;21.048;2023-04-08T15:15:04;14.00;1.00
18305;DHT22;9278;52.156;21.048;2023-04-08T15:17:33;14.20;1.00
18305;DHT22;9278;52.156;21.048;2023-04-08T15:20:01;14.20;1.00
18305;DHT22;9278;52.156;21.048;2023-04-08T15:22:29;13.80;1.00
18305;DHT22;9278;52.156;21.048;2023-04-08T15:24:58;13.70;1.00
18305;DHT22;9278;52.156;21.048;2023-04-08T15:27:26;13.60;1.00
18305;DHT22;9278;52.156;21.048;2023-04-08T15:29:54;13.60;1.00
18305;DHT22;9278;52.156;21.048;2023-04-08T15:32:24;13.60;1.00
18305;DHT22;9278;52.156;21.048;2023-04-08T15:34:52;13.60;1.00
18305;DHT22;9278;52.156;21.048;2023-04-08T15:37:21;13.60;1.00
18305;DHT22;9278;52.156;21.048;2023-04-08T15:39:49;13.80;1.00
18305;DHT22;9278;52.156;21.048;2023-04-08T15:42:20;13.70;1.00
18305;DHT22;9278;52.156;21.048;2023-04-08T15:44:48;13.70;1.00
18305;DHT22;9278;52.156;21.048;2023-04-08T15:47:16;13.60;1.00
18305;DHT22;9278;52.156;21.048;2023-04-08T15:49:46;13.60;1.00
18305;DHT22;9278;52.156;21.048;2023-04-08T15:52:14;14.30;1.00
18305;DHT22;9278;52.156;21.048;2023-04-08T15:54:43;13.50;1.00
18305;DHT22;9278;52.156;21.048;2023-04-08T15:57:12;13.60;1.00
18305;DHT22;9278;52.156;21.048;2023-04-08T15:59:42;13.50;1.00
18305;DHT22;9278;52.156;21.048;2023-04-08T16:02:10;13.70;1.00